createdAt,value
2022-12-19T00:01:37.486Z,72.57
2022-12-19T00:04:08.117Z,72.66
2022-12-19T00:06:37.798Z,72.48
2022-12-19T00:09:05.260Z,72.51
2022-12-19T00:11:32.569Z,72.60
2022-12-19T00:13:59.728Z,72.54
2022-12-19T00:16:27.759Z,72.64
2022-12-19T00:18:55.815Z,72.86
2022-12-19T00:21:23.982Z,72.60
2022-12-19T00:23:51.244Z,72.58
2022-12-19T00:26:19.682Z,72.57
2022-12-19T00:28:48.764Z,72.68
2022-12-19T00:31:17.345Z,72.70
2022-12-19T00:33:46.918Z,72.86
2022-12-19T00:36:14.976Z,72.63
2022-12-19T00:38:44.061Z,72.61
2022-12-19T00:41:14.229Z,72.78
2022-12-19T00:43:44.061Z,72.94
2022-12-19T00:46:12.733Z,72.93
2022-12-19T00:48:40.768Z,73.03
2022-12-19T00:51:10.561Z,73.17
2022-12-19T00:53:38.421Z,72.93
2022-12-19T00:56:06.692Z,73.07
2022-12-19T00:58:35.669Z,73.01
2022-12-19T01:01:09.983Z,72.92
2022-12-19T01:03:36.861Z,72.97
2022-12-19T01:06:04.011Z,73.00
2022-12-19T01:08:31.793Z,72.74
2022-12-19T01:10:58.660Z,72.92
2022-12-19T01:13:26.203Z,73.02
2022-12-19T01:15:52.921Z,72.97
2022-12-19T01:18:19.688Z,73.01
2022-12-19T01:20:47.757Z,72.88
2022-12-19T01:23:16.127Z,72.86
2022-12-19T01:25:45.265Z,72.66
2022-12-19T01:28:14.101Z,72.65
2022-12-19T01:30:41.931Z,72.74
2022-12-19T01:33:12.591Z,72.80
2022-12-19T01:35:39.687Z,72.68
2022-12-19T01:38:07.805Z,72.75
2022-12-19T01:40:35.984Z,72.72
2022-12-19T01:43:03.864Z,72.80
2022-12-19T01:45:34.675Z,72.66
2022-12-19T01:48:02.192Z,72.79
2022-12-19T01:50:38.097Z,72.79
2022-12-19T01:53:09.669Z,72.69
2022-12-19T01:55:37.320Z,72.39
2022-12-19T01:58:04.223Z,72.30
2022-12-19T02:00:31.378Z,72.30
2022-12-19T02:03:07.791Z,72.35
2022-12-19T02:05:43.808Z,72.55
2022-12-19T02:08:11.128Z,72.32
2022-12-19T02:10:37.871Z,72.36
2022-12-19T02:13:06.578Z,72.30
2022-12-19T02:15:35.533Z,72.10
2022-12-19T02:18:12.509Z,72.26
2022-12-19T02:20:39.485Z,72.25
2022-12-19T02:23:21.428Z,72.02
2022-12-19T02:25:51.997Z,72.15
2022-12-19T02:28:27.058Z,72.30
2022-12-19T02:30:58.142Z,72.06
2022-12-19T02:33:27.779Z,72.21
2022-12-19T02:36:04.134Z,72.36
2022-12-19T02:38:51.389Z,72.13
2022-12-19T02:41:24.909Z,72.33
2022-12-19T02:43:58.761Z,72.21
2022-12-19T02:46:30.103Z,72.51
2022-12-19T02:48:57.285Z,72.39
2022-12-19T02:51:24.014Z,72.47
2022-12-19T02:53:51.831Z,72.27
2022-12-19T02:56:25.992Z,72.52
2022-12-19T02:59:12.885Z,72.23
2022-12-19T03:01:47.755Z,72.65
2022-12-19T03:04:18.790Z,72.53
2022-12-19T03:06:49.701Z,72.44
2022-12-19T03:09:35.414Z,72.71
2022-12-19T03:12:10.642Z,72.41
2022-12-19T03:14:40.109Z,72.61
2022-12-19T03:17:08.164Z,72.62
2022-12-19T03:19:38.375Z,72.47
2022-12-19T03:22:05.291Z,72.68
2022-12-19T03:24:32.088Z,72.47
2022-12-19T03:27:17.743Z,72.67
2022-12-19T03:29:47.873Z,72.48
2022-12-19T03:32:16.160Z,72.53
2022-12-19T03:34:42.878Z,72.69
2022-12-19T03:37:15.238Z,72.57
2022-12-19T03:39:43.950Z,72.72
2022-12-19T03:42:30.012Z,72.62
2022-12-19T03:45:00.684Z,72.79
2022-12-19T03:47:30.373Z,72.75
2022-12-19T03:49:57.185Z,72.82
2022-12-19T03:52:44.184Z,72.77
2022-12-19T03:55:18.372Z,72.76
2022-12-19T03:57:53.921Z,73.00
2022-12-19T04:00:22.049Z,72.97
2022-12-19T04:02:50.202Z,72.78
2022-12-19T04:05:22.062Z,73.06
2022-12-19T04:07:50.215Z,72.91
2022-12-19T04:10:19.381Z,72.91
2022-12-19T04:12:58.114Z,73.18
2022-12-19T04:15:32.910Z,72.89
2022-12-19T04:18:01.679Z,72.92
2022-12-19T04:20:28.787Z,72.83
2022-12-19T04:23:04.605Z,72.94
2022-12-19T04:25:34.995Z,73.11
2022-12-19T04:28:31.034Z,72.96
2022-12-19T04:30:58.309Z,73.18
2022-12-19T04:33:25.205Z,73.33
2022-12-19T04:35:52.090Z,73.16
2022-12-19T04:38:18.797Z,73.06
2022-12-19T04:40:45.636Z,73.37
2022-12-19T04:43:12.417Z,73.28
2022-12-19T04:45:42.813Z,73.28
2022-12-19T04:48:10.208Z,73.41
2022-12-19T04:50:36.985Z,73.42
2022-12-19T04:53:04.135Z,73.47
2022-12-19T04:55:30.872Z,73.46
2022-12-19T04:57:58.630Z,73.52
2022-12-19T05:00:25.307Z,73.64
2022-12-19T05:02:52.569Z,73.39
2022-12-19T05:05:19.393Z,73.70
2022-12-19T05:07:47.160Z,73.65
2022-12-19T05:10:13.977Z,73.36
2022-12-19T05:12:40.844Z,73.65
2022-12-19T05:15:07.835Z,73.69
2022-12-19T05:17:34.583Z,73.55
2022-12-19T05:20:01.331Z,73.56
2022-12-19T05:22:28.274Z,73.85
2022-12-19T05:24:54.970Z,73.71
2022-12-19T05:27:22.957Z,73.66
2022-12-19T05:29:50.881Z,73.69
2022-12-19T05:32:17.920Z,73.79
2022-12-19T05:34:44.699Z,73.70
2022-12-19T05:37:12.378Z,73.67
2022-12-19T05:39:39.070Z,73.92
2022-12-19T05:42:09.669Z,73.71
2022-12-19T05:44:39.073Z,73.92
2022-12-19T05:47:05.882Z,73.71
2022-12-19T05:49:34.279Z,73.84
2022-12-19T05:52:00.916Z,74.03
2022-12-19T05:54:28.747Z,73.94
2022-12-19T05:56:55.872Z,73.78
2022-12-19T05:59:22.714Z,73.99
2022-12-19T06:01:49.536Z,74.00
2022-12-19T06:04:16.472Z,74.08
2022-12-19T06:06:43.189Z,73.86
2022-12-19T06:09:09.946Z,73.87
2022-12-19T06:11:36.611Z,73.93
2022-12-19T06:14:03.520Z,73.89
2022-12-19T06:16:30.368Z,73.81
2022-12-19T06:18:57.607Z,73.94
2022-12-19T06:21:24.790Z,73.87
2022-12-19T06:23:51.675Z,73.97
2022-12-19T06:26:20.515Z,73.81
2022-12-19T06:28:48.609Z,73.74
2022-12-19T06:31:16.004Z,73.91
2022-12-19T06:33:43.753Z,73.72
2022-12-19T06:36:12.443Z,73.88
2022-12-19T06:38:39.297Z,74.02
2022-12-19T06:41:24.647Z,73.83
2022-12-19T06:43:53.512Z,74.03
2022-12-19T06:46:20.949Z,73.78
2022-12-19T06:48:48.137Z,74.02
2022-12-19T06:51:14.965Z,73.79
2022-12-19T06:53:41.733Z,73.99
2022-12-19T06:56:08.592Z,74.17
2022-12-19T06:58:35.702Z,74.15
2022-12-19T07:01:03.312Z,73.97
2022-12-19T07:03:32.520Z,74.17
2022-12-19T07:05:59.489Z,74.05
2022-12-19T07:08:29.904Z,74.24
2022-12-19T07:10:58.791Z,74.26
2022-12-19T07:13:25.907Z,74.09
2022-12-19T07:15:54.737Z,74.14
2022-12-19T07:18:21.455Z,74.07
2022-12-19T07:20:48.307Z,74.30
2022-12-19T07:23:18.236Z,74.02
2022-12-19T07:25:45.060Z,74.34
2022-12-19T07:28:11.961Z,74.35
2022-12-19T07:30:38.775Z,74.09
2022-12-19T07:33:05.562Z,74.09
2022-12-19T07:35:32.737Z,74.46
2022-12-19T07:38:06.532Z,74.24
2022-12-19T07:40:33.810Z,74.49
2022-12-19T07:43:01.602Z,74.46
2022-12-19T07:45:29.678Z,74.43
2022-12-19T07:48:03.279Z,74.24
2022-12-19T07:50:32.813Z,74.29
2022-12-19T07:52:59.673Z,74.60
2022-12-19T07:55:27.022Z,74.55
2022-12-19T07:57:54.031Z,74.61
2022-12-19T08:00:22.111Z,74.32
2022-12-19T08:02:48.928Z,74.46
2022-12-19T08:05:15.862Z,74.58
2022-12-19T08:07:42.559Z,74.54
2022-12-19T08:10:11.449Z,74.31
2022-12-19T08:12:38.444Z,74.33
2022-12-19T08:15:06.261Z,74.27
2022-12-19T08:17:34.676Z,74.35
2022-12-19T08:20:01.595Z,74.28
2022-12-19T08:22:29.575Z,74.10
2022-12-19T08:24:57.822Z,74.08
2022-12-19T08:27:25.325Z,73.96
2022-12-19T08:29:53.090Z,74.02
2022-12-19T08:32:21.422Z,73.99
2022-12-19T08:34:49.674Z,74.02
2022-12-19T08:37:16.704Z,73.83
2022-12-19T08:39:43.731Z,73.90
2022-12-19T08:42:10.532Z,73.55
2022-12-19T08:44:37.791Z,73.42
2022-12-19T08:47:04.841Z,73.40
2022-12-19T08:49:32.070Z,73.55
2022-12-19T08:51:58.969Z,73.19
2022-12-19T08:54:27.268Z,73.05
2022-12-19T08:56:54.328Z,73.10
2022-12-19T08:59:30.212Z,73.41
2022-12-19T09:01:59.063Z,73.02
2022-12-19T09:05:59.964Z,73.29
2022-12-19T09:07:15.696Z,73.14
2022-12-19T09:09:42.966Z,73.20
2022-12-19T09:12:10.712Z,73.26
2022-12-19T09:14:37.554Z,73.16
2022-12-19T09:17:05.007Z,73.19
2022-12-19T09:19:32.310Z,73.01
2022-12-19T09:22:00.851Z,72.89
2022-12-19T09:24:27.589Z,73.03
2022-12-19T09:26:55.208Z,72.60
2022-12-19T09:29:22.441Z,72.66
2022-12-19T09:31:56.427Z,72.49
2022-12-19T09:34:37.034Z,72.71
2022-12-19T09:37:06.663Z,72.96
2022-12-19T09:39:34.496Z,72.87
2022-12-19T09:42:19.732Z,72.79
2022-12-19T09:44:46.605Z,72.84
2022-12-19T09:47:18.278Z,72.90
2022-12-19T09:49:46.420Z,72.78
2022-12-19T09:52:13.155Z,72.81
2022-12-19T09:55:21.411Z,72.68
2022-12-19T09:58:12.560Z,72.70
2022-12-19T10:00:43.283Z,72.69
2022-12-19T10:03:16.412Z,72.41
2022-12-19T10:07:05.360Z,72.52
2022-12-19T10:10:13.759Z,72.64
2022-12-19T10:12:37.496Z,72.20
2022-12-19T10:14:30.641Z,72.17
2022-12-19T10:20:21.938Z,72.09
2022-12-19T10:22:57.341Z,71.88
2022-12-19T10:25:42.725Z,71.91
2022-12-19T10:28:36.806Z,71.65
2022-12-19T10:31:17.234Z,71.64
2022-12-19T10:34:03.166Z,71.81
2022-12-19T10:37:04.357Z,71.62
2022-12-19T10:39:26.070Z,71.48
2022-12-19T10:41:56.570Z,71.36
2022-12-19T10:44:28.105Z,71.56
2022-12-19T10:46:55.031Z,70.92
2022-12-19T10:49:23.229Z,70.63
2022-12-19T10:51:59.137Z,70.39
2022-12-19T10:54:38.639Z,70.42
2022-12-19T10:57:24.843Z,70.49
2022-12-19T11:00:06.223Z,70.19
2022-12-19T11:02:42.275Z,70.19
2022-12-19T11:05:30.187Z,70.15
2022-12-19T11:08:00.096Z,69.92
2022-12-19T11:12:03.614Z,69.83
2022-12-19T11:19:52.795Z,70.00
2022-12-19T11:21:32.820Z,69.78
2022-12-19T11:29:15.596Z,69.75
2022-12-19T11:29:32.068Z,69.87
2022-12-19T11:30:48.667Z,69.38
2022-12-19T11:30:49.026Z,69.57
2022-12-19T11:34:13.661Z,69.37
2022-12-19T11:36:46.525Z,69.26
2022-12-19T11:39:17.974Z,69.44
2022-12-19T11:41:49.058Z,69.31
2022-12-19T11:44:26.364Z,69.41
2022-12-19T11:47:06.808Z,69.29
2022-12-19T11:49:46.177Z,69.32
2022-12-19T11:55:22.103Z,69.14
2022-12-19T11:57:49.025Z,69.22
2022-12-19T12:00:21.022Z,69.20
2022-12-19T12:03:17.408Z,69.15
2022-12-19T12:05:45.021Z,69.17
2022-12-19T12:09:23.156Z,69.50
2022-12-19T12:15:09.423Z,69.58
2022-12-19T12:17:01.923Z,69.31
2022-12-19T12:22:00.961Z,69.32
2022-12-19T12:31:27.852Z,69.37
2022-12-19T12:31:51.387Z,69.28
2022-12-19T12:31:56.041Z,69.13
2022-12-19T12:32:00.349Z,69.21
2022-12-19T12:35:30.232Z,69.45
2022-12-19T12:40:53.849Z,69.27
2022-12-19T12:43:42.259Z,69.22
2022-12-19T12:46:35.534Z,69.48
2022-12-19T12:49:04.206Z,69.19
2022-12-19T12:51:33.345Z,69.26
2022-12-19T12:54:05.215Z,69.42
2022-12-19T12:56:32.492Z,69.24
2022-12-19T12:59:04.563Z,68.98
2022-12-19T13:01:40.332Z,69.24
2022-12-19T13:04:19.960Z,69.20
2022-12-19T13:06:50.455Z,69.43
2022-12-19T13:09:20.352Z,69.66
2022-12-19T13:12:05.812Z,70.82
2022-12-19T13:14:32.606Z,71.20
2022-12-19T13:16:59.855Z,71.44
2022-12-19T13:19:29.447Z,70.48
2022-12-19T13:22:05.203Z,69.94
2022-12-19T13:24:38.040Z,69.46
2022-12-19T13:27:25.310Z,69.47
2022-12-19T13:30:01.238Z,69.52
2022-12-19T13:32:33.581Z,69.34
2022-12-19T13:35:50.683Z,69.30
2022-12-19T13:39:59.748Z,69.21
2022-12-19T13:40:55.643Z,69.34
2022-12-19T13:43:48.284Z,69.45
2022-12-19T13:46:34.073Z,69.20
2022-12-19T13:49:07.004Z,69.34
2022-12-19T13:51:46.142Z,68.96
2022-12-19T13:54:34.724Z,69.18
2022-12-19T13:57:08.157Z,69.32
2022-12-19T13:59:40.189Z,69.21
2022-12-19T14:02:44.704Z,69.35
2022-12-19T14:05:48.459Z,69.30
2022-12-19T14:08:13.815Z,69.24
2022-12-19T14:11:34.561Z,69.44
2022-12-19T14:14:01.306Z,69.40
2022-12-19T14:16:43.905Z,69.48
2022-12-19T14:19:38.255Z,69.53
2022-12-19T14:22:24.757Z,69.44
2022-12-19T14:25:45.133Z,69.26
2022-12-19T14:28:24.867Z,69.51
2022-12-19T14:30:41.130Z,69.44
2022-12-19T14:33:44.325Z,69.35
2022-12-19T14:36:05.957Z,69.65
2022-12-19T14:39:22.536Z,69.55
2022-12-19T14:41:47.226Z,69.53
2022-12-19T14:51:42.930Z,69.56
2022-12-19T14:53:17.420Z,69.74
2022-12-19T14:54:13.316Z,69.53
2022-12-19T14:54:30.697Z,69.55
2022-12-19T14:56:03.784Z,69.58
2022-12-19T14:58:54.750Z,69.82
2022-12-19T15:01:23.582Z,69.69
2022-12-19T15:04:48.409Z,69.78
2022-12-19T15:07:08.032Z,69.84
2022-12-19T15:11:07.921Z,69.90
2022-12-19T15:14:48.944Z,70.18
2022-12-19T15:15:37.853Z,69.87
2022-12-19T15:18:18.248Z,69.83
2022-12-19T15:20:45.182Z,70.00
2022-12-19T15:23:15.261Z,70.02
2022-12-19T15:28:43.915Z,70.23
2022-12-19T15:31:24.496Z,70.17
2022-12-19T15:34:32.225Z,70.30
2022-12-19T15:36:38.157Z,70.32
2022-12-19T15:39:04.976Z,70.40
2022-12-19T15:41:31.753Z,70.46
2022-12-19T15:44:06.275Z,70.48
2022-12-19T15:46:33.769Z,70.25
2022-12-19T15:49:01.350Z,70.45
2022-12-19T15:51:28.234Z,70.50
2022-12-19T15:54:08.891Z,70.47
2022-12-19T15:56:51.092Z,70.54
2022-12-19T15:59:24.461Z,70.50
2022-12-19T16:01:51.736Z,70.59
2022-12-19T16:04:18.847Z,70.68
2022-12-19T16:06:45.775Z,70.69
2022-12-19T16:09:23.586Z,70.81
2022-12-19T16:11:51.509Z,70.89
2022-12-19T16:14:19.512Z,70.77
2022-12-19T16:16:49.275Z,70.83
2022-12-19T16:19:28.099Z,70.62
2022-12-19T16:21:56.774Z,70.76
2022-12-19T16:24:23.929Z,70.84
2022-12-19T16:26:58.465Z,70.99
2022-12-19T16:29:29.442Z,70.94
2022-12-19T16:31:56.283Z,70.76
2022-12-19T16:34:24.194Z,70.88
2022-12-19T16:36:52.140Z,70.83
2022-12-19T16:39:19.024Z,70.88
2022-12-19T16:41:46.475Z,71.17
2022-12-19T16:44:20.451Z,71.14
2022-12-19T16:46:51.110Z,71.07
2022-12-19T16:49:23.058Z,71.15
2022-12-19T16:51:50.214Z,71.16
2022-12-19T16:54:17.926Z,71.24
2022-12-19T16:56:49.643Z,71.16
2022-12-19T16:59:16.502Z,71.10
2022-12-19T17:01:44.566Z,71.25
2022-12-19T17:04:21.857Z,71.35
2022-12-19T17:06:49.942Z,71.37
2022-12-19T17:09:18.520Z,71.30
2022-12-19T17:11:47.904Z,71.30
2022-12-19T17:14:25.309Z,71.28
2022-12-19T17:16:55.226Z,71.22
2022-12-19T17:19:39.074Z,71.61
2022-12-19T17:22:13.140Z,71.53
2022-12-19T17:24:41.689Z,71.50
2022-12-19T17:27:08.432Z,71.50
2022-12-19T17:29:36.824Z,71.41
2022-12-19T17:32:04.171Z,71.50
2022-12-19T17:34:32.885Z,71.68
2022-12-19T17:37:00.611Z,71.42
2022-12-19T17:39:29.135Z,71.61
2022-12-19T17:41:57.876Z,71.52
2022-12-19T17:44:24.704Z,71.68
2022-12-19T17:46:51.589Z,71.76
2022-12-19T17:49:30.323Z,71.87
2022-12-19T17:51:59.017Z,71.81
2022-12-19T17:54:26.050Z,71.54
2022-12-19T17:56:52.959Z,71.86
2022-12-19T17:59:19.697Z,71.62
2022-12-19T18:01:47.532Z,71.82
2022-12-19T18:04:15.489Z,71.74
2022-12-19T18:06:42.532Z,71.67
2022-12-19T18:09:19.878Z,71.68
2022-12-19T18:11:47.296Z,71.87
2022-12-19T18:14:14.593Z,71.93
2022-12-19T18:16:42.743Z,72.02
2022-12-19T18:19:23.569Z,72.01
2022-12-19T18:21:50.435Z,72.22
2022-12-19T18:24:17.818Z,72.08
2022-12-19T18:26:45.241Z,72.20
2022-12-19T18:29:12.044Z,72.04
2022-12-19T18:31:46.286Z,72.15
2022-12-19T18:34:19.489Z,72.28
2022-12-19T18:36:46.296Z,72.24
2022-12-19T18:39:21.622Z,72.07
2022-12-19T18:41:50.285Z,72.44
2022-12-19T18:44:17.453Z,72.22
2022-12-19T18:46:44.688Z,72.47
2022-12-19T18:49:12.797Z,72.36
2022-12-19T18:51:39.871Z,72.32
2022-12-19T18:54:19.146Z,72.51
2022-12-19T18:56:47.102Z,72.39
2022-12-19T18:59:14.312Z,72.48
2022-12-19T19:01:43.303Z,72.80
2022-12-19T19:04:12.265Z,72.68
2022-12-19T19:06:42.135Z,72.81
2022-12-19T19:09:16.563Z,72.69
2022-12-19T19:11:43.258Z,72.59
2022-12-19T19:14:10.096Z,72.60
2022-12-19T19:16:37.408Z,72.55
2022-12-19T19:19:10.668Z,72.65
2022-12-19T19:21:38.046Z,72.45
2022-12-19T19:24:10.758Z,72.58
2022-12-19T19:26:37.614Z,72.61
2022-12-19T19:29:05.154Z,72.62
2022-12-19T19:31:34.639Z,72.46
2022-12-19T19:34:05.022Z,72.38
2022-12-19T19:36:35.993Z,72.51
2022-12-19T19:39:03.120Z,72.63
2022-12-19T19:41:30.346Z,72.63
2022-12-19T19:43:57.563Z,72.86
2022-12-19T19:46:24.370Z,72.84
2022-12-19T19:48:51.734Z,72.96
2022-12-19T19:51:18.673Z,72.88
2022-12-19T19:53:45.450Z,72.88
2022-12-19T19:56:12.337Z,73.11
2022-12-19T19:58:39.210Z,73.05
2022-12-19T20:01:11.016Z,73.05
2022-12-19T20:03:40.135Z,72.95
2022-12-19T20:06:07.410Z,73.34
2022-12-19T20:08:39.850Z,73.25
2022-12-19T20:11:08.522Z,73.19
2022-12-19T20:13:35.254Z,73.17
2022-12-19T20:16:03.083Z,73.19
2022-12-19T20:18:30.526Z,73.43
2022-12-19T20:20:57.587Z,73.51
2022-12-19T20:23:25.111Z,73.71
2022-12-19T20:25:52.026Z,73.53
2022-12-19T20:28:19.290Z,73.57
2022-12-19T20:30:47.368Z,73.63
2022-12-19T20:33:14.216Z,73.78
2022-12-19T20:35:41.057Z,73.69
2022-12-19T20:38:07.809Z,73.88
2022-12-19T20:40:34.647Z,73.70
2022-12-19T20:43:01.425Z,73.77
2022-12-19T20:45:28.297Z,74.04
2022-12-19T20:47:55.495Z,74.13
2022-12-19T20:50:22.788Z,74.13
2022-12-19T20:52:49.571Z,73.88
2022-12-19T20:55:16.393Z,74.02
2022-12-19T20:57:43.137Z,74.05
2022-12-19T21:00:10.346Z,74.25
2022-12-19T21:03:16.674Z,74.35
2022-12-19T21:05:24.805Z,74.31
2022-12-19T21:07:51.623Z,74.14
2022-12-19T21:10:18.466Z,74.30
2022-12-19T21:12:47.785Z,74.51
2022-12-19T21:15:14.950Z,74.42
2022-12-19T21:17:41.748Z,74.63
2022-12-19T21:20:08.701Z,74.40
2022-12-19T21:22:35.551Z,74.79
2022-12-19T21:25:02.916Z,74.80
2022-12-19T21:27:29.623Z,74.70
2022-12-19T21:29:56.493Z,74.79
2022-12-19T21:32:23.352Z,74.90
2022-12-19T21:34:52.312Z,75.26
2022-12-19T21:37:19.038Z,75.28
2022-12-19T21:39:45.896Z,75.27
2022-12-19T21:42:12.613Z,75.43
2022-12-19T21:44:39.455Z,75.34
2022-12-19T21:47:06.209Z,75.43
2022-12-19T21:49:32.997Z,75.71
2022-12-19T21:51:59.728Z,75.69
2022-12-19T21:54:26.444Z,75.66
2022-12-19T21:56:53.144Z,75.85
2022-12-19T21:59:19.894Z,75.73
2022-12-19T22:01:46.802Z,75.88
2022-12-19T22:04:15.777Z,76.04
2022-12-19T22:06:42.585Z,75.85
2022-12-19T22:09:12.267Z,75.92
2022-12-19T22:11:39.108Z,76.27
2022-12-19T22:14:06.529Z,76.15
2022-12-19T22:16:34.847Z,76.24
2022-12-19T22:19:01.635Z,76.37
2022-12-19T22:21:28.478Z,76.42
2022-12-19T22:23:58.346Z,76.38
2022-12-19T22:26:25.815Z,76.39
2022-12-19T22:28:53.532Z,76.62
2022-12-19T22:31:27.852Z,76.66
2022-12-19T22:34:04.968Z,76.61
2022-12-19T22:36:33.033Z,76.68
2022-12-19T22:39:00.524Z,76.72
2022-12-19T22:41:28.071Z,76.66
2022-12-19T22:43:55.133Z,76.84
2022-12-19T22:46:42.127Z,77.00
2022-12-19T22:49:13.865Z,76.70
2022-12-19T22:51:42.377Z,76.88
2022-12-19T22:54:10.340Z,77.09
2022-12-19T22:56:37.813Z,77.09
2022-12-19T22:59:06.401Z,77.10
2022-12-19T23:01:35.396Z,77.05
2022-12-19T23:04:02.871Z,77.26
2022-12-19T23:06:31.382Z,77.37
2022-12-19T23:08:58.479Z,77.41
2022-12-19T23:11:27.335Z,77.38
2022-12-19T23:13:54.206Z,77.25
2022-12-19T23:16:21.486Z,77.36
2022-12-19T23:18:48.232Z,77.38
2022-12-19T23:21:20.066Z,77.38
2022-12-19T23:23:49.656Z,77.51
2022-12-19T23:26:21.080Z,77.37
2022-12-19T23:28:52.506Z,77.72
2022-12-19T23:31:19.735Z,77.60
2022-12-19T23:33:46.525Z,77.90
2022-12-19T23:36:13.304Z,77.79
2022-12-19T23:38:40.716Z,77.77
2022-12-19T23:41:08.778Z,77.73
2022-12-19T23:43:35.987Z,78.00
2022-12-19T23:46:07.133Z,77.83
2022-12-19T23:48:34.107Z,78.02
2022-12-19T23:51:01.883Z,78.01
2022-12-19T23:53:28.805Z,78.15
2022-12-19T23:55:55.596Z,78.11
2022-12-19T23:58:24.819Z,78.33
